Time;durP1;ratioP1;P1;durP2;ratioP2;P2;SDS_P1;SDS_P2;PMS_P1;PMS_P2;Temp;Humidity;BMP_temperature;BMP_pressure;BME280_temperature;BME280_humidity;BME280_pressure;Samples;Min_cycle;Max_cycle;Signal;HPM_P1;HPM_P2
2023/05/01 00:00:52;;;;;;;33.70;22.67;;;15.60;99.90;;;;;;5064300;28;20405;-71
2023/05/01 00:03:18;;;;;;;37.20;22.92;;;15.40;99.90;;;;;;5075444;28;20039;-72
2023/05/01 00:05:45;;;;;;;35.88;23.38;;;15.50;99.90;;;;;;5074487;28;20032;-71
2023/05/01 00:08:11;;;;;;;37.05;23.38;;;15.50;99.90;;;;;;5074243;28;20032;-71
2023/05/01 00:10:37;;;;;;;39.00;24.90;;;15.30;99.90;;;;;;5074348;28;20488;-71
2023/05/01 00:13:03;;;;;;;39.67;25.33;;;15.30;99.90;;;;;;5074270;28;20029;-72
2023/05/01 00:15:30;;;;;;;42.55;25.38;;;15.10;99.90;;;;;;5074082;28;20028;-71
2023/05/01 00:17:57;;;;;;;40.22;24.92;;;15.00;99.90;;;;;;5073274;28;20033;-72
2023/05/01 00:20:28;;;;;;;39.88;26.30;;;14.90;99.90;;;;;;5074080;28;20028;-71
2023/05/01 00:22:54;;;;;;;42.70;25.60;;;14.90;99.90;;;;;;5074254;28;20373;-72
2023/05/01 00:25:20;;;;;;;39.88;25.15;;;15.00;99.90;;;;;;5074050;28;20040;-72
2023/05/01 00:27:47;;;;;;;41.80;26.17;;;15.10;99.90;;;;;;5075240;28;20036;-72
2023/05/01 00:30:13;;;;;;;40.50;26.38;;;15.10;99.90;;;;;;5074503;28;20028;-71
2023/05/01 00:32:40;;;;;;;40.67;25.60;;;15.00;99.90;;;;;;5073518;28;20464;-71
2023/05/01 00:35:06;;;;;;;39.85;24.25;;;15.00;99.90;;;;;;5075302;28;20031;-71
2023/05/01 00:37:32;;;;;;;39.22;23.58;;;14.90;99.90;;;;;;5062347;28;20442;-72
2023/05/01 00:39:59;;;;;;;37.80;24.52;;;14.80;99.90;;;;;;5053806;28;20055;-72
2023/05/01 00:42:25;;;;;;;36.08;23.27;;;14.80;99.90;;;;;;5054948;28;20029;-72
2023/05/01 00:44:51;;;;;;;37.65;23.13;;;15.00;99.90;;;;;;5054471;28;20036;-71
2023/05/01 00:47:17;;;;;;;37.22;23.20;;;15.00;99.90;;;;;;5034293;28;20053;-71
2023/05/01 00:49:43;;;;;;;33.83;22.58;;;14.80;99.90;;;;;;5033571;28;20045;-71
2023/05/01 00:52:10;;;;;;;34.00;22.08;;;14.70;99.90;;;;;;5050366;28;20405;-71
2023/05/01 00:54:36;;;;;;;31.50;20.35;;;14.60;99.90;;;;;;5033677;28;20048;-72
2023/05/01 00:57:02;;;;;;;29.85;19.83;;;14.30;99.90;;;;;;5050234;28;20036;-71
2023/05/01 00:59:29;;;;;;;31.13;19.98;;;14.10;99.90;;;;;;5049746;28;20033;-71
2023/05/01 01:01:55;;;;;;;33.95;20.20;;;14.10;99.90;;;;;;5065327;28;20040;-71
2023/05/01 01:04:21;;;;;;;30.95;20.65;;;14.10;99.90;;;;;;5074452;28;20036;-71
2023/05/01 01:07:02;;;;;;;33.42;20.63;;;14.20;99.90;;;;;;5072891;28;20052;-71
2023/05/01 01:09:51;;;;;;;33.00;20.80;;;14.20;99.90;;;;;;5074142;28;20025;-71
2023/05/01 01:12:35;;;;;;;31.40;20.08;;;14.20;99.90;;;;;;5073237;28;20036;-71
2023/05/01 01:15:07;;;;;;;28.90;20.17;;;14.30;99.90;;;;;;5072903;28;20439;-71
2023/05/01 01:17:57;;;;;;;32.03;20.85;;;14.30;99.90;;;;;;5073553;28;20033;-72
2023/05/01 01:20:39;;;;;;;33.15;20.65;;;14.40;99.90;;;;;;5074300;28;20370;-71
2023/05/01 01:23:27;;;;;;;31.27;20.75;;;14.30;99.90;;;;;;5073107;28;20036;-72
2023/05/01 01:26:35;;;;;;;35.05;21.50;;;14.30;99.90;;;;;;5074177;28;20056;-72
2023/05/01 01:29:22;;;;;;;29.55;19.17;;;14.30;99.90;;;;;;5072468;28;20477;-71
2023/05/01 01:31:51;;;;;;;31.77;20.48;;;14.30;99.90;;;;;;5072427;28;20051;-71
2023/05/01 01:34:39;;;;;;;30.38;20.23;;;14.20;99.90;;;;;;5073860;28;20035;-71
2023/05/01 01:37:43;;;;;;;35.67;21.23;;;14.30;99.90;;;;;;5064950;28;20029;-71
2023/05/01 01:40:15;;;;;;;29.90;19.60;;;14.30;99.90;;;;;;4972864;28;20404;-71
2023/05/01 01:42:44;;;;;;;28.33;19.23;;;14.40;99.90;;;;;;4941513;28;20054;-72
2023/05/01 01:45:16;;;;;;;30.85;19.35;;;14.40;99.90;;;;;;4956110;28;20043;-71
2023/05/01 01:47:42;;;;;;;31.65;19.52;;;14.50;99.90;;;;;;4956938;28;20058;-71
2023/05/01 01:50:09;;;;;;;33.40;19.80;;;14.50;99.90;;;;;;4956097;28;20057;-72
2023/05/01 01:52:36;;;;;;;31.25;19.00;;;14.50;99.90;;;;;;4940893;28;20039;-71
2023/05/01 01:55:05;;;;;;;31.50;20.05;;;14.50;99.90;;;;;;4940831;28;20039;-71
2023/05/01 01:57:31;;;;;;;33.97;19.80;;;14.50;99.90;;;;;;4940607;28;20403;-72
2023/05/01 01:59:57;;;;;;;27.60;19.10;;;14.60;99.90;;;;;;4939738;28;20053;-71
2023/05/01 02:02:23;;;;;;;30.95;19.42;;;14.50;99.90;;;;;;4936236;28;20031;-72
2023/05/01 02:04:50;;;;;;;34.88;20.27;;;14.40;99.90;;;;;;4937897;28;20034;-72
2023/05/01 02:07:17;;;;;;;34.00;20.02;;;14.40;99.90;;;;;;4935511;28;20047;-72
2023/05/01 02:09:44;;;;;;;30.58;19.02;;;14.40;99.90;;;;;;4970048;28;20440;-71
2023/05/01 02:12:10;;;;;;;34.80;18.48;;;14.40;99.90;;;;;;4937395;28;20501;-71
2023/05/01 02:14:36;;;;;;;32.38;18.73;;;14.20;99.90;;;;;;4938672;28;20039;-72
2023/05/01 02:17:03;;;;;;;34.28;19.65;;;14.20;99.90;;;;;;5019506;28;20038;-72
2023/05/01 02:19:29;;;;;;;34.60;19.23;;;14.20;99.90;;;;;;5029946;28;20037;-71
2023/05/01 02:21:56;;;;;;;30.23;19.00;;;14.20;99.90;;;;;;5030338;28;20096;-71
2023/05/01 02:24:23;;;;;;;29.27;18.90;;;14.40;99.90;;;;;;5030574;28;20030;-72
2023/05/01 02:26:54;;;;;;;28.08;17.67;;;14.30;99.90;;;;;;5049697;28;20037;-72
2023/05/01 02:29:20;;;;;;;27.40;16.98;;;14.30;99.90;;;;;;5050123;28;20029;-72
2023/05/01 02:31:46;;;;;;;27.73;16.88;;;14.30;99.90;;;;;;5049501;28;20044;-72
2023/05/01 02:34:12;;;;;;;29.58;17.00;;;14.10;99.90;;;;;;5049700;28;20029;-72
2023/05/01 02:36:38;;;;;;;28.45;17.60;;;13.90;99.90;;;;;;5038868;28;20021;-71
2023/05/01 02:39:04;;;;;;;24.80;16.45;;;14.00;99.90;;;;;;5031654;28;20025;-71
2023/05/01 02:41:30;;;;;;;28.40;16.83;;;14.00;99.90;;;;;;5047428;28;20064;-71
2023/05/01 02:44:00;;;;;;;24.25;16.17;;;13.80;99.90;;;;;;5031509;28;20018;-72
2023/05/01 02:46:26;;;;;;;31.33;17.25;;;13.80;99.90;;;;;;5031003;28;20406;-71
2023/05/01 02:48:53;;;;;;;27.08;16.70;;;13.80;99.90;;;;;;5047638;28;20037;-71
2023/05/01 02:51:19;;;;;;;24.90;15.88;;;13.80;99.90;;;;;;5048424;28;20034;-72
2023/05/01 02:53:45;;;;;;;24.02;16.00;;;13.80;99.90;;;;;;5031565;28;20025;-71
2023/05/01 02:56:12;;;;;;;27.08;17.00;;;13.60;99.90;;;;;;5031194;28;20034;-71
2023/05/01 02:58:38;;;;;;;26.52;15.20;;;13.60;99.90;;;;;;5032590;28;20033;-71
2023/05/01 03:01:04;;;;;;;24.40;16.27;;;13.80;99.90;;;;;;5064459;28;20493;-71
2023/05/01 03:03:30;;;;;;;23.23;15.90;;;13.80;99.90;;;;;;5072342;28;20020;-72
2023/05/01 03:05:57;;;;;;;23.77;15.57;;;13.80;99.90;;;;;;5071319;28;20083;-72
2023/05/01 03:08:23;;;;;;;26.00;15.68;;;13.80;99.90;;;;;;5071275;28;20028;-71
2023/05/01 03:10:49;;;;;;;24.67;14.93;;;13.80;99.90;;;;;;5070841;28;20031;-71
2023/05/01 03:13:15;;;;;;;23.08;15.13;;;13.80;99.90;;;;;;5072416;28;20033;-71
2023/05/01 03:15:42;;;;;;;24.73;15.07;;;13.70;99.90;;;;;;5069942;28;20040;-71
2023/05/01 03:18:08;;;;;;;23.30;15.18;;;13.60;99.90;;;;;;5071021;28;20381;-71
2023/05/01 03:20:34;;;;;;;25.23;15.40;;;13.60;99.90;;;;;;5071158;28;20021;-71
2023/05/01 03:23:00;;;;;;;22.05;14.60;;;13.60;99.90;;;;;;5070948;28;20025;-72
2023/05/01 03:25:26;;;;;;;26.20;15.48;;;13.50;99.90;;;;;;5070450;28;20493;-71
2023/05/01 03:27:52;;;;;;;22.75;15.38;;;13.50;99.90;;;;;;5071380;28;20036;-71
2023/05/01 03:30:18;;;;;;;22.80;15.88;;;13.60;99.90;;;;;;5070499;28;20466;-71
2023/05/01 03:32:44;;;;;;;22.00;15.35;;;13.70;99.90;;;;;;5075054;28;20021;-71
2023/05/01 03:35:11;;;;;;;23.55;14.23;;;13.70;99.90;;;;;;5076394;28;20477;-71
2023/05/01 03:37:37;;;;;;;22.80;14.52;;;13.70;99.90;;;;;;5059427;28;20037;-71
2023/05/01 03:40:03;;;;;;;25.15;15.90;;;13.60;99.90;;;;;;5055693;28;20025;-71
2023/05/01 03:42:29;;;;;;;25.00;16.25;;;13.60;99.90;;;;;;5056078;28;20059;-71
2023/05/01 03:44:56;;;;;;;24.58;16.00;;;13.70;99.90;;;;;;5054895;28;20370;-71
2023/05/01 03:47:22;;;;;;;26.70;15.82;;;13.90;99.90;;;;;;5036319;28;20398;-71
2023/05/01 03:49:48;;;;;;;22.77;15.20;;;13.80;99.90;;;;;;5034730;28;20410;-72
2023/05/01 03:52:15;;;;;;;21.67;14.48;;;13.90;99.90;;;;;;5035870;28;20036;-72
2023/05/01 03:54:41;;;;;;;21.83;14.02;;;14.00;99.90;;;;;;5050941;28;20034;-71
2023/05/01 03:57:08;;;;;;;25.20;15.30;;;13.90;99.90;;;;;;5036017;28;20041;-72
2023/05/01 03:59:34;;;;;;;22.88;15.38;;;13.60;99.90;;;;;;5035389;28;20041;-71
2023/05/01 04:02:00;;;;;;;22.30;15.48;;;13.60;99.90;;;;;;5067699;28;20037;-71
2023/05/01 04:04:28;;;;;;;22.45;14.75;;;13.60;99.90;;;;;;5075722;28;20029;-71
2023/05/01 04:06:54;;;;;;;24.33;15.30;;;13.60;99.90;;;;;;5075568;28;20385;-72
2023/05/01 04:09:20;;;;;;;25.20;15.50;;;13.70;99.90;;;;;;5074172;28;20029;-71
2023/05/01 04:11:46;;;;;;;26.48;15.23;;;13.80;99.90;;;;;;5075582;28;20032;-71
2023/05/01 04:14:12;;;;;;;20.17;13.70;;;13.80;99.90;;;;;;5075569;28;20032;-71
2023/05/01 04:16:38;;;;;;;26.60;15.82;;;13.80;99.90;;;;;;5074985;28;20043;-71
2023/05/01 04:19:04;;;;;;;23.80;14.40;;;13.60;99.90;;;;;;5074146;28;20021;-71
2023/05/01 04:21:31;;;;;;;21.35;13.52;;;13.40;99.90;;;;;;5074179;28;20048;-71
2023/05/01 04:23:57;;;;;;;22.15;15.30;;;13.50;99.90;;;;;;5075156;28;20477;-71
2023/05/01 04:26:23;;;;;;;22.20;14.38;;;13.40;99.90;;;;;;5075230;28;20033;-71
2023/05/01 04:28:49;;;;;;;21.90;14.48;;;13.40;99.90;;;;;;5074001;28;20457;-72
2023/05/01 04:31:16;;;;;;;20.90;13.90;;;13.40;99.90;;;;;;5074566;28;20036;-71
2023/05/01 04:33:42;;;;;;;25.50;14.65;;;13.40;99.90;;;;;;5073922;28;20033;-72
2023/05/01 04:36:08;;;;;;;19.70;13.00;;;13.50;99.90;;;;;;5070725;28;20036;-72
2023/05/01 04:38:36;;;;;;;22.65;13.90;;;13.60;99.90;;;;;;5054773;28;20025;-71
2023/05/01 04:41:03;;;;;;;17.80;13.10;;;13.50;99.90;;;;;;5053712;28;20036;-71
2023/05/01 04:43:29;;;;;;;21.85;13.55;;;13.50;99.90;;;;;;5054807;28;20025;-71
2023/05/01 04:45:55;;;;;;;19.38;12.55;;;13.60;99.90;;;;;;5047200;28;20086;-71
2023/05/01 04:48:21;;;;;;;19.88;12.95;;;13.60;99.90;;;;;;5049958;28;20064;-71
2023/05/01 04:50:48;;;;;;;17.98;11.88;;;13.70;99.90;;;;;;5050303;28;20033;-71
2023/05/01 04:53:14;;;;;;;20.50;12.00;;;13.70;99.90;;;;;;5034587;28;20482;-71
2023/05/01 04:55:40;;;;;;;20.50;12.35;;;13.70;99.90;;;;;;5050242;28;20364;-71
2023/05/01 04:58:06;;;;;;;16.50;11.52;;;13.80;99.90;;;;;;5033221;28;20395;-72
2023/05/01 05:00:32;;;;;;;18.38;11.57;;;13.70;99.90;;;;;;5058035;28;20039;-72
2023/05/01 05:02:58;;;;;;;20.73;11.90;;;13.60;99.90;;;;;;5074761;28;20055;-71
2023/05/01 05:05:24;;;;;;;17.85;11.73;;;13.70;99.90;;;;;;5074588;28;20037;-71
2023/05/01 05:07:50;;;;;;;17.08;11.15;;;13.80;99.90;;;;;;5073013;28;20075;-72
2023/05/01 05:10:17;;;;;;;18.55;11.05;;;13.80;99.90;;;;;;5073415;28;20028;-71
2023/05/01 05:12:43;;;;;;;21.00;11.45;;;13.70;99.90;;;;;;5073229;28;20039;-71
2023/05/01 05:15:10;;;;;;;19.15;11.27;;;13.70;99.90;;;;;;5073990;28;20028;-71
2023/05/01 05:17:36;;;;;;;13.52;10.40;;;13.70;99.90;;;;;;5074514;28;20028;-71
2023/05/01 05:20:02;;;;;;;20.02;11.07;;;13.60;99.90;;;;;;5073146;28;20389;-71
2023/05/01 05:22:28;;;;;;;16.60;10.02;;;13.40;99.90;;;;;;5072685;28;20032;-72
2023/05/01 05:24:54;;;;;;;24.00;12.10;;;13.40;99.90;;;;;;5074503;28;20373;-71
2023/05/01 05:27:20;;;;;;;15.38;10.68;;;13.40;99.90;;;;;;5072214;28;20508;-71
2023/05/01 05:29:46;;;;;;;17.42;10.57;;;13.50;99.90;;;;;;5074118;28;20024;-72
2023/05/01 05:32:13;;;;;;;14.68;10.02;;;13.40;99.90;;;;;;5073563;28;20504;-72
2023/05/01 05:34:39;;;;;;;14.90;10.27;;;13.40;99.90;;;;;;5072280;28;20033;-72
2023/05/01 05:37:05;;;;;;;16.58;10.00;;;13.50;99.90;;;;;;5060159;28;20397;-71
2023/05/01 05:39:31;;;;;;;18.02;9.77;;;13.50;99.90;;;;;;5053821;28;20033;-71
2023/05/01 05:41:57;;;;;;;18.42;10.35;;;13.40;99.90;;;;;;5053872;28;20043;-71
2023/05/01 05:44:23;;;;;;;15.25;9.60;;;13.40;99.90;;;;;;5052492;28;20021;-71
2023/05/01 05:46:50;;;;;;;16.00;10.27;;;13.50;99.90;;;;;;5038368;28;20041;-71
2023/05/01 05:49:16;;;;;;;16.05;9.85;;;13.60;99.90;;;;;;5033734;28;20050;-72
2023/05/01 05:51:42;;;;;;;15.95;9.65;;;13.50;99.90;;;;;;5032407;28;20052;-72
2023/05/01 05:54:08;;;;;;;21.63;9.85;;;13.70;99.90;;;;;;5033243;28;20034;-72
2023/05/01 05:56:34;;;;;;;16.70;9.88;;;13.80;99.90;;;;;;5033689;28;20033;-71
2023/05/01 05:59:03;;;;;;;14.98;9.77;;;13.90;99.90;;;;;;5033628;28;20043;-71
2023/05/01 06:01:29;;;;;;;16.55;10.18;;;13.80;99.90;;;;;;5057065;28;20044;-71
2023/05/01 06:03:55;;;;;;;16.75;9.98;;;13.70;99.90;;;;;;5073279;28;20033;-71
2023/05/01 06:06:21;;;;;;;14.50;9.90;;;13.70;99.90;;;;;;5073454;28;20036;-71
2023/05/01 06:08:47;;;;;;;17.02;10.88;;;13.70;99.90;;;;;;5072011;28;20389;-71
2023/05/01 06:11:13;;;;;;;17.85;11.30;;;13.70;99.90;;;;;;5072189;28;20040;-71
2023/05/01 06:13:39;;;;;;;16.77;11.18;;;13.80;99.90;;;;;;5073233;28;20389;-71
2023/05/01 06:16:06;;;;;;;17.48;10.63;;;13.80;99.90;;;;;;5072781;28;20021;-71
2023/05/01 06:18:32;;;;;;;15.82;10.43;;;13.80;99.90;;;;;;5071636;28;20024;-71
2023/05/01 06:20:58;;;;;;;13.13;9.98;;;13.80;99.90;;;;;;5071862;28;20031;-71
2023/05/01 06:23:25;;;;;;;18.27;10.90;;;13.90;99.90;;;;;;5072117;28;20032;-71
2023/05/01 06:25:51;;;;;;;14.80;10.13;;;14.10;99.90;;;;;;5072061;28;20217;-72
2023/05/01 06:28:17;;;;;;;17.55;11.30;;;14.20;99.90;;;;;;5072874;28;20043;-71
2023/05/01 06:30:43;;;;;;;16.60;10.77;;;14.30;99.90;;;;;;5071105;28;20072;-72
2023/05/01 06:33:09;;;;;;;16.35;11.07;;;14.50;99.90;;;;;;5072593;28;20032;-71
2023/05/01 06:35:38;;;;;;;18.88;9.68;;;14.50;99.90;;;;;;5071649;28;20485;-71
2023/05/01 06:38:04;;;;;;;16.08;9.60;;;14.30;99.90;;;;;;5053200;28;20505;-71
2023/05/01 06:40:31;;;;;;;14.40;9.48;;;14.20;99.90;;;;;;5052683;28;20029;-71
2023/05/01 06:42:57;;;;;;;16.42;10.32;;;14.40;99.90;;;;;;5050887;28;20052;-72
2023/05/01 06:45:23;;;;;;;10.25;8.35;;;14.70;99.90;;;;;;5048058;28;20469;-72
2023/05/01 06:47:49;;;;;;;14.55;8.50;;;14.90;99.90;;;;;;5032183;28;20051;-72
2023/05/01 06:50:15;;;;;;;14.23;8.45;;;15.10;99.90;;;;;;5032565;28;20029;-72
2023/05/01 06:52:42;;;;;;;13.05;8.90;;;15.30;99.90;;;;;;5030938;28;20046;-72
2023/05/01 06:55:08;;;;;;;12.63;8.63;;;15.50;99.90;;;;;;5032628;28;20021;-72
2023/05/01 06:57:34;;;;;;;8.88;7.85;;;15.80;99.90;;;;;;5047843;28;20030;-72
2023/05/01 07:00:00;;;;;;;8.93;6.30;;;16.00;99.90;;;;;;5032620;28;20474;-71
2023/05/01 07:02:27;;;;;;;9.40;5.75;;;16.10;99.90;;;;;;5071534;28;20029;-72
2023/05/01 07:04:53;;;;;;;8.38;6.10;;;16.10;99.90;;;;;;5070811;28;20377;-72
2023/05/01 07:07:19;;;;;;;11.27;6.13;;;16.00;99.90;;;;;;5070836;28;20036;-72
2023/05/01 07:09:45;;;;;;;8.68;5.60;;;15.90;99.90;;;;;;5072447;28;20032;-72
2023/05/01 07:12:11;;;;;;;6.97;5.40;;;16.00;99.90;;;;;;5072235;28;20045;-71
2023/05/01 07:14:37;;;;;;;11.07;5.72;;;16.10;99.90;;;;;;5072393;28;20047;-72
2023/05/01 07:17:03;;;;;;;7.05;6.32;;;16.20;99.90;;;;;;5070205;28;20037;-72
2023/05/01 07:19:29;;;;;;;8.30;6.45;;;16.30;99.90;;;;;;5071088;28;20036;-72
2023/05/01 07:21:55;;;;;;;6.43;5.43;;;16.30;99.90;;;;;;5071163;28;20073;-72
2023/05/01 07:24:21;;;;;;;6.00;5.35;;;16.30;99.90;;;;;;5071007;28;20480;-72
2023/05/01 07:26:48;;;;;;;7.45;5.20;;;16.40;99.90;;;;;;5070463;28;20044;-72
2023/05/01 07:29:15;;;;;;;7.50;5.68;;;16.70;99.90;;;;;;5072090;28;20040;-72
2023/05/01 07:31:41;;;;;;;8.88;5.75;;;17.00;99.90;;;;;;5053038;28;20032;-72
2023/05/01 07:34:07;;;;;;;7.63;5.57;;;17.20;99.90;;;;;;5072135;28;20039;-72
2023/05/01 07:36:33;;;;;;;7.15;5.40;;;17.40;99.90;;;;;;5064342;28;20382;-72
2023/05/01 07:38:59;;;;;;;6.80;6.10;;;17.70;99.90;;;;;;5050872;28;20040;-72
2023/05/01 07:41:26;;;;;;;7.15;5.35;;;17.90;99.90;;;;;;5051984;28;20032;-72
2023/05/01 07:43:52;;;;;;;8.52;5.47;;;17.80;99.90;;;;;;5050895;28;20084;-72
2023/05/01 07:46:18;;;;;;;6.10;5.57;;;17.70;99.90;;;;;;5040759;28;20053;-72
2023/05/01 07:48:44;;;;;;;7.75;5.47;;;17.80;99.90;;;;;;5031647;28;20057;-72
2023/05/01 07:51:10;;;;;;;10.18;6.82;;;17.80;99.90;;;;;;5031967;28;20379;-73
2023/05/01 07:53:37;;;;;;;6.93;6.35;;;18.00;99.90;;;;;;5047334;28;20029;-72
2023/05/01 07:56:09;;;;;;;6.28;5.72;;;18.20;99.90;;;;;;5031873;28;20017;-72
2023/05/01 07:58:36;;;;;;;8.02;6.10;;;18.40;99.90;;;;;;5032072;28;20394;-72
2023/05/01 08:01:02;;;;;;;7.00;6.22;;;18.40;99.90;;;;;;5062880;28;20044;-72
2023/05/01 08:03:29;;;;;;;6.85;5.90;;;18.30;99.90;;;;;;5053510;28;20382;-72
2023/05/01 08:05:55;;;;;;;7.65;5.65;;;18.10;99.90;;;;;;5070620;28;20028;-72
2023/05/01 08:08:22;;;;;;;6.68;4.95;;;18.00;99.90;;;;;;5071694;28;20036;-72
2023/05/01 08:10:48;;;;;;;5.75;5.03;;;18.00;99.90;;;;;;5070697;28;20032;-72
2023/05/01 08:13:14;;;;;;;5.55;4.75;;;18.20;99.90;;;;;;5071783;28;20032;-72
2023/05/01 08:15:41;;;;;;;5.63;4.75;;;18.40;99.90;;;;;;5069629;28;20039;-72
2023/05/01 08:18:08;;;;;;;5.43;4.65;;;18.50;99.90;;;;;;5074388;28;20024;-72
2023/05/01 08:20:37;;;;;;;7.30;4.72;;;18.50;99.90;;;;;;5074232;28;20023;-72
2023/05/01 08:23:03;;;;;;;5.30;4.47;;;18.50;99.90;;;;;;5074170;28;20107;-72
2023/05/01 08:25:30;;;;;;;7.55;5.18;;;18.50;99.90;;;;;;5074143;28;20025;-72
2023/05/01 08:27:56;;;;;;;5.95;4.80;;;18.70;99.90;;;;;;5074324;28;20064;-72
2023/05/01 08:30:22;;;;;;;6.18;4.88;;;18.80;99.90;;;;;;5073171;28;20389;-72
2023/05/01 08:32:48;;;;;;;7.93;4.95;;;18.90;99.90;;;;;;5073979;28;20031;-72
2023/05/01 08:35:14;;;;;;;5.30;4.80;;;19.20;99.90;;;;;;5075149;28;20047;-72
2023/05/01 08:37:41;;;;;;;8.55;4.50;;;19.00;99.90;;;;;;5056966;28;20040;-72
2023/05/01 08:40:07;;;;;;;5.20;4.70;;;19.00;99.90;;;;;;5036703;28;20033;-72
2023/05/01 08:42:37;;;;;;;6.13;5.03;;;19.10;99.90;;;;;;5055272;28;20031;-72
2023/05/01 08:45:08;;;;;;;5.95;4.88;;;18.70;99.90;;;;;;5053993;28;20032;-72
2023/05/01 08:47:36;;;;;;;6.78;5.30;;;18.10;99.90;;;;;;5033653;28;20387;-72
2023/05/01 08:50:02;;;;;;;6.40;5.50;;;17.70;99.90;;;;;;5033496;28;20410;-72
2023/05/01 08:52:29;;;;;;;6.43;5.38;;;17.80;99.90;;;;;;5050290;28;20034;-72
2023/05/01 08:54:55;;;;;;;6.05;4.95;;;18.00;99.90;;;;;;5033737;28;20033;-72
2023/05/01 08:57:22;;;;;;;7.22;5.53;;;17.90;99.90;;;;;;5050188;28;20029;-72
2023/05/01 08:59:49;;;;;;;7.00;4.43;;;18.20;99.90;;;;;;5033279;28;20493;-72
2023/05/01 09:02:15;;;;;;;6.57;5.28;;;18.50;99.90;;;;;;5068713;28;20033;-72
2023/05/01 09:04:42;;;;;;;6.93;5.30;;;18.80;99.90;;;;;;5073584;28;20481;-72
2023/05/01 09:07:08;;;;;;;6.07;4.60;;;19.00;99.90;;;;;;5073393;28;20024;-72
2023/05/01 09:09:35;;;;;;;6.13;4.90;;;18.80;99.90;;;;;;5073427;28;20040;-72
2023/05/01 09:12:24;;;;;;;6.00;4.70;;;18.50;99.90;;;;;;5074569;28;20033;-72
2023/05/01 09:14:53;;;;;;;6.75;5.05;;;18.50;99.90;;;;;;5073332;28;20032;-72
2023/05/01 09:17:20;;;;;;;9.13;4.93;;;18.30;99.90;;;;;;5072987;28;20037;-72
2023/05/01 09:19:47;;;;;;;6.72;5.10;;;18.00;99.90;;;;;;5073213;28;20422;-72
2023/05/01 09:22:14;;;;;;;6.20;4.72;;;17.70;99.90;;;;;;5073178;28;20032;-72
2023/05/01 09:24:40;;;;;;;8.52;5.72;;;17.80;99.90;;;;;;5073057;28;20033;-72
2023/05/01 09:27:06;;;;;;;7.07;5.35;;;17.90;99.90;;;;;;5073910;28;20029;-72
2023/05/01 09:29:40;;;;;;;5.45;4.93;;;17.90;99.90;;;;;;5071945;28;20485;-72
2023/05/01 09:32:15;;;;;;;7.97;5.45;;;18.20;99.90;;;;;;5072408;28;20036;-72
2023/05/01 09:34:44;;;;;;;5.88;5.10;;;18.50;99.90;;;;;;5074310;28;20036;-72
2023/05/01 09:37:26;;;;;;;6.35;4.28;;;18.50;99.90;;;;;;5061227;28;20040;-72
2023/05/01 09:40:09;;;;;;;7.13;4.57;;;18.20;99.90;;;;;;5052691;28;20658;-72
2023/05/01 09:42:37;;;;;;;5.47;4.35;;;18.10;99.90;;;;;;5052621;28;20382;-72
2023/05/01 09:45:05;;;;;;;6.38;4.85;;;18.30;99.90;;;;;;5051970;28;20017;-72
2023/05/01 09:47:33;;;;;;;6.82;4.55;;;18.20;99.90;;;;;;5033830;28;20025;-72
2023/05/01 09:49:59;;;;;;;5.03;4.40;;;18.20;99.90;;;;;;5048989;28;20402;-72
2023/05/01 09:52:29;;;;;;;4.97;3.97;;;18.30;99.90;;;;;;5049278;28;20028;-73
2023/05/01 09:55:15;;;;;;;5.40;4.90;;;18.50;99.90;;;;;;5032697;28;20406;-72
2023/05/01 09:57:42;;;;;;;5.30;4.38;;;18.80;99.90;;;;;;5048762;28;20284;-72
2023/05/01 10:00:09;;;;;;;8.65;4.47;;;18.90;99.90;;;;;;5033576;28;20034;-72
2023/05/01 10:02:36;;;;;;;7.38;4.85;;;19.00;99.90;;;;;;5072324;28;20392;-72
2023/05/01 10:05:02;;;;;;;4.43;4.03;;;18.80;99.90;;;;;;5073245;28;20036;-72
2023/05/01 10:07:28;;;;;;;5.47;4.45;;;18.70;99.90;;;;;;5055086;28;20037;-72
2023/05/01 10:09:55;;;;;;;6.88;4.53;;;18.60;99.90;;;;;;5072134;28;20051;-71
2023/05/01 10:12:25;;;;;;;5.32;4.60;;;18.70;99.90;;;;;;5054930;28;20063;-72
2023/05/01 10:14:52;;;;;;;6.03;5.05;;;19.00;99.90;;;;;;5072188;28;20021;-71
2023/05/01 10:17:19;;;;;;;8.18;4.97;;;19.30;99.90;;;;;;5071515;28;20474;-71
2023/05/01 10:19:46;;;;;;;5.10;4.70;;;19.40;99.90;;;;;;5073131;28;20021;-72
2023/05/01 10:22:12;;;;;;;8.45;4.90;;;19.40;99.90;;;;;;5073363;28;20389;-71
2023/05/01 10:24:42;;;;;;;7.00;5.20;;;19.30;99.90;;;;;;5073254;28;20028;-72
2023/05/01 10:27:09;;;;;;;9.27;5.35;;;19.30;99.90;;;;;;5072624;28;20025;-71
2023/05/01 10:29:36;;;;;;;5.13;4.70;;;19.10;99.90;;;;;;5071716;28;20111;-71
2023/05/01 10:32:03;;;;;;;6.35;5.72;;;18.90;99.90;;;;;;5071252;28;20111;-71
2023/05/01 10:34:30;;;;;;;5.90;5.30;;;18.80;99.90;;;;;;5071564;28;20501;-71
2023/05/01 10:36:58;;;;;;;6.32;5.40;;;18.70;99.90;;;;;;5060846;28;20032;-72
2023/05/01 10:39:35;;;;;;;7.93;5.18;;;19.00;99.90;;;;;;5051303;28;20025;-72
2023/05/01 10:42:05;;;;;;;5.38;4.88;;;19.20;99.90;;;;;;5051344;28;20505;-71
2023/05/01 10:44:32;;;;;;;5.40;4.90;;;19.10;99.90;;;;;;5051168;28;20041;-72
2023/05/01 10:46:58;;;;;;;6.70;4.60;;;19.20;99.90;;;;;;5036496;28;20033;-72
2023/05/01 10:50:03;;;;;;;5.70;4.72;;;19.20;99.90;;;;;;5032354;28;20037;-71
2023/05/01 10:52:30;;;;;;;6.40;4.80;;;19.20;99.90;;;;;;5032694;28;20032;-71
2023/05/01 10:55:51;;;;;;;5.88;5.22;;;19.30;99.90;;;;;;5032373;28;20025;-72
2023/05/01 10:58:36;;;;;;;6.63;5.95;;;19.30;99.90;;;;;;5030529;28;20041;-72
2023/05/01 11:01:32;;;;;;;6.60;6.10;;;19.10;99.90;;;;;;5048718;28;20037;-71
2023/05/01 11:04:01;;;;;;;8.13;6.70;;;19.30;99.90;;;;;;5072498;28;20024;-72
2023/05/01 11:06:27;;;;;;;6.55;5.95;;;19.40;99.90;;;;;;5072395;28;20039;-72
2023/05/01 11:08:53;;;;;;;7.15;6.25;;;19.60;99.90;;;;;;5070724;28;20478;-71
2023/05/01 11:11:22;;;;;;;6.93;6.35;;;19.90;99.90;;;;;;5071430;28;20025;-71
2023/05/01 11:14:04;;;;;;;7.38;6.78;;;20.10;99.90;;;;;;5072386;28;20032;-71
2023/05/01 11:16:36;;;;;;;7.25;6.68;;;20.20;99.90;;;;;;5071864;28;20393;-72
2023/05/01 11:19:06;;;;;;;7.90;7.22;;;20.20;99.90;;;;;;5072288;28;20036;-71
2023/05/01 11:21:33;;;;;;;7.55;6.35;;;20.00;99.90;;;;;;5071133;28;20033;-72
2023/05/01 11:23:59;;;;;;;9.18;6.53;;;20.00;99.90;;;;;;5071947;28;20036;-72
2023/05/01 11:26:26;;;;;;;7.45;6.47;;;20.00;99.90;;;;;;5070949;28;20029;-72
2023/05/01 11:28:53;;;;;;;7.45;6.72;;;20.10;99.90;;;;;;5071056;28;20041;-72
2023/05/01 11:31:20;;;;;;;6.53;5.93;;;20.00;99.90;;;;;;5053362;28;20086;-71
2023/05/01 11:33:46;;;;;;;6.47;5.97;;;20.10;99.90;;;;;;5071032;28;20037;-71
2023/05/01 11:36:13;;;;;;;7.10;6.40;;;19.70;99.90;;;;;;5067371;28;20025;-72
2023/05/01 11:38:58;;;;;;;6.90;6.30;;;19.50;99.90;;;;;;5034262;28;20037;-71
2023/05/01 11:41:27;;;;;;;6.53;6.03;;;19.60;99.90;;;;;;5052093;28;20032;-71
2023/05/01 11:43:57;;;;;;;6.93;6.50;;;19.80;99.90;;;;;;5051059;28;20021;-71
2023/05/01 11:46:30;;;;;;;6.78;6.20;;;20.00;99.90;;;;;;5067049;28;20040;-71
2023/05/01 11:48:57;;;;;;;7.25;6.65;;;20.00;99.90;;;;;;5058901;28;20044;-71
2023/05/01 11:51:26;;;;;;;7.15;6.45;;;20.00;99.90;;;;;;5070983;28;20095;-72
2023/05/01 11:54:08;;;;;;;7.05;6.45;;;20.20;99.90;;;;;;5074672;28;20036;-72
2023/05/01 11:56:35;;;;;;;8.48;7.68;;;20.40;99.90;;;;;;5074891;28;20024;-71
2023/05/01 11:59:20;;;;;;;7.68;7.00;;;20.60;99.90;;;;;;5074646;28;20028;-71
2023/05/01 12:01:46;;;;;;;7.82;7.22;;;20.60;99.90;;;;;;5074219;28;20036;-71
2023/05/01 12:04:21;;;;;;;7.90;6.88;;;20.70;99.90;;;;;;5074652;28;20040;-71
2023/05/01 12:06:47;;;;;;;9.05;6.82;;;20.70;99.90;;;;;;5057266;28;20033;-71
2023/05/01 12:09:17;;;;;;;7.45;6.72;;;20.30;99.90;;;;;;5075652;28;20043;-72
2023/05/01 12:11:44;;;;;;;7.63;6.97;;;20.10;99.90;;;;;;5074538;28;20043;-71
2023/05/01 12:14:10;;;;;;;6.50;5.90;;;20.10;99.90;;;;;;5074279;28;20025;-71
2023/05/01 12:16:36;;;;;;;7.07;6.38;;;19.80;99.90;;;;;;5073824;28;20028;-71
2023/05/01 12:19:03;;;;;;;7.05;6.35;;;19.70;99.90;;;;;;5075355;28;20031;-71
2023/05/01 12:21:30;;;;;;;7.63;6.93;;;19.90;99.90;;;;;;5073941;28;20020;-71
2023/05/01 12:24:06;;;;;;;7.35;6.68;;;19.90;99.90;;;;;;5074327;28;20029;-72
2023/05/01 12:26:32;;;;;;;8.77;6.47;;;19.80;99.90;;;;;;5075355;28;20032;-71
2023/05/01 12:28:59;;;;;;;7.85;7.07;;;20.00;99.90;;;;;;5073923;28;20040;-71
2023/05/01 12:31:26;;;;;;;7.60;5.80;;;20.20;99.90;;;;;;5073543;28;20029;-71
2023/05/01 12:33:56;;;;;;;8.30;7.20;;;20.30;99.90;;;;;;5074122;28;20033;-72
2023/05/01 12:36:26;;;;;;;10.48;7.57;;;20.70;99.90;;;;;;5067084;28;20067;-71
2023/05/01 12:39:01;;;;;;;7.25;6.65;;;20.90;99.90;;;;;;5053979;28;20038;-72
2023/05/01 12:41:43;;;;;;;8.30;6.80;;;20.80;99.90;;;;;;5055061;28;20032;-71